sensor_id;sensor_type;location;lat;lon;timestamp;pressure;altitude;pressure_sealevel;temperature;humidity
37648;BME280;23490;53.656;10.076;2022-08-01T00:00:21;55882.63;;;-145.95;100.00
37648;BME280;23490;53.656;10.076;2022-08-01T00:02:46;55888.72;;;-145.95;100.00
37648;BME280;23490;53.656;10.076;2022-08-01T00:05:11;55886.69;;;-145.95;100.00
37648;BME280;23490;53.656;10.076;2022-08-01T00:07:37;55862.22;;;-145.95;100.00
37648;BME280;23490;53.656;10.076;2022-08-01T00:10:04;55905.03;;;-145.95;100.00
37648;BME280;23490;53.656;10.076;2022-08-01T00:12:30;55850.00;;;-145.95;100.00
37648;BME280;23490;53.656;10.076;2022-08-01T00:14:55;55868.34;;;-145.95;100.00
37648;BME280;23490;53.656;10.076;2022-08-01T00:17:20;55870.38;;;-145.95;100.00
37648;BME280;23490;53.656;10.076;2022-08-01T00:19:46;55898.94;;;-145.95;100.00
37648;BME280;23490;53.656;10.076;2022-08-01T00:22:11;55888.72;;;-145.95;100.00
37648;BME280;23490;53.656;10.076;2022-08-01T00:24:36;55876.50;;;-145.95;100.00
37648;BME280;23490;53.656;10.076;2022-08-01T00:27:02;55858.16;;;-145.95;100.00
37648;BME280;23490;53.656;10.076;2022-08-01T00:29:27;55878.53;;;-145.95;100.00
37648;BME280;23490;53.656;10.076;2022-08-01T00:31:52;55862.22;;;-145.95;100.00
37648;BME280;23490;53.656;10.076;2022-08-01T00:34:18;55903.00;;;-145.95;100.00
37648;BME280;23490;53.656;10.076;2022-08-01T00:36:43;55876.50;;;-145.95;100.00
37648;BME280;23490;53.656;10.076;2022-08-01T00:39:08;55903.00;;;-145.95;100.00
37648;BME280;23490;53.656;10.076;2022-08-01T00:41:34;55882.63;;;-145.95;100.00
37648;BME280;23490;53.656;10.076;2022-08-01T00:44:03;55870.38;;;-145.95;100.00
37648;BME280;23490;53.656;10.076;2022-08-01T00:46:28;55894.84;;;-145.95;100.00
37648;BME280;23490;53.656;10.076;2022-08-01T00:48:53;55923.41;;;-145.95;100.00
37648;BME280;23490;53.656;10.076;2022-08-01T00:51:20;55898.94;;;-145.95;100.00
37648;BME280;23490;53.656;10.076;2022-08-01T00:53:46;55884.66;;;-145.95;100.00
37648;BME280;23490;53.656;10.076;2022-08-01T00:56:11;55886.69;;;-145.95;100.00
37648;BME280;23490;53.656;10.076;2022-08-01T00:58:37;55898.94;;;-145.95;100.00
37648;BME280;23490;53.656;10.076;2022-08-01T01:01:02;55919.31;;;-145.95;100.00
37648;BME280;23490;53.656;10.076;2022-08-01T01:03:28;55919.31;;;-145.95;100.00
37648;BME280;23490;53.656;10.076;2022-08-01T01:06:05;55894.84;;;-145.95;100.00
37648;BME280;23490;53.656;10.076;2022-08-01T01:08:49;55878.53;;;-145.95;100.00
37648;BME280;23490;53.656;10.076;2022-08-01T01:11:25;55886.69;;;-145.95;100.00
37648;BME280;23490;53.656;10.076;2022-08-01T01:13:57;55903.00;;;-145.95;100.00
37648;BME280;23490;53.656;10.076;2022-08-01T01:16:25;55890.78;;;-145.95;100.00
37648;BME280;23490;53.656;10.076;2022-08-01T01:18:57;55927.47;;;-145.95;100.00
37648;BME280;23490;53.656;10.076;2022-08-01T01:21:42;55886.69;;;-145.95;100.00
37648;BME280;23490;53.656;10.076;2022-08-01T01:24:37;55874.47;;;-145.95;100.00
37648;BME280;23490;53.656;10.076;2022-08-01T01:29:50;55886.69;;;-145.95;100.00
37648;BME280;23490;53.656;10.076;2022-08-01T01:32:21;55909.13;;;-145.95;100.00
37648;BME280;23490;53.656;10.076;2022-08-01T01:34:49;55915.25;;;-145.95;100.00
37648;BME280;23490;53.656;10.076;2022-08-01T01:37:21;55896.88;;;-145.95;100.00
37648;BME280;23490;53.656;10.076;2022-08-01T01:39:49;55911.16;;;-145.95;100.00
37648;BME280;23490;53.656;10.076;2022-08-01T01:42:17;55892.81;;;-145.95;100.00
37648;BME280;23490;53.656;10.076;2022-08-01T01:44:45;55866.31;;;-145.95;100.00
37648;BME280;23490;53.656;10.076;2022-08-01T01:47:14;55890.78;;;-145.95;100.00
37648;BME280;23490;53.656;10.076;2022-08-01T01:49:44;55866.31;;;-145.95;100.00
37648;BME280;23490;53.656;10.076;2022-08-01T01:52:12;55898.94;;;-145.95;100.00
37648;BME280;23490;53.656;10.076;2022-08-01T01:54:50;55907.09;;;-145.95;100.00
37648;BME280;23490;53.656;10.076;2022-08-01T01:57:18;55874.47;;;-145.95;100.00
37648;BME280;23490;53.656;10.076;2022-08-01T01:59:44;55927.47;;;-145.95;100.00
37648;BME280;23490;53.656;10.076;2022-08-01T02:02:11;55898.94;;;-145.95;100.00
37648;BME280;23490;53.656;10.076;2022-08-01T02:04:40;55886.69;;;-145.95;100.00
37648;BME280;23490;53.656;10.076;2022-08-01T02:07:07;55866.31;;;-145.95;100.00
37648;BME280;23490;53.656;10.076;2022-08-01T02:09:35;55886.69;;;-145.95;100.00
37648;BME280;23490;53.656;10.076;2022-08-01T02:12:03;55903.00;;;-145.95;100.00
37648;BME280;23490;53.656;10.076;2022-08-01T02:14:29;55882.63;;;-145.95;100.00
37648;BME280;23490;53.656;10.076;2022-08-01T02:16:57;55921.34;;;-145.95;100.00
37648;BME280;23490;53.656;10.076;2022-08-01T02:19:23;55886.69;;;-145.95;100.00
37648;BME280;23490;53.656;10.076;2022-08-01T02:21:56;55907.09;;;-145.95;100.00
37648;BME280;23490;53.656;10.076;2022-08-01T02:26:53;55911.16;;;-145.95;100.00
37648;BME280;23490;53.656;10.076;2022-08-01T02:29:32;55907.09;;;-145.95;100.00
37648;BME280;23490;53.656;10.076;2022-08-01T02:31:58;55898.94;;;-145.95;100.00
37648;BME280;23490;53.656;10.076;2022-08-01T02:34:28;55866.31;;;-145.95;100.00
37648;BME280;23490;53.656;10.076;2022-08-01T02:36:58;55854.06;;;-145.95;100.00
37648;BME280;23490;53.656;10.076;2022-08-01T02:39:25;55890.78;;;-145.95;100.00
37648;BME280;23490;53.656;10.076;2022-08-01T02:41:57;55872.41;;;-145.95;100.00
37648;BME280;23490;53.656;10.076;2022-08-01T02:44:24;55874.47;;;-145.95;100.00
37648;BME280;23490;53.656;10.076;2022-08-01T02:46:56;55872.41;;;-145.95;100.00
37648;BME280;23490;53.656;10.076;2022-08-01T02:49:23;55900.97;;;-145.95;100.00
37648;BME280;23490;53.656;10.076;2022-08-01T02:51:52;55931.56;;;-145.95;100.00
37648;BME280;23490;53.656;10.076;2022-08-01T02:54:20;55905.03;;;-145.95;100.00
37648;BME280;23490;53.656;10.076;2022-08-01T02:56:48;55923.41;;;-145.95;100.00
37648;BME280;23490;53.656;10.076;2022-08-01T02:59:18;55927.47;;;-145.95;100.00
37648;BME280;23490;53.656;10.076;2022-08-01T03:01:44;55860.19;;;-145.95;100.00
37648;BME280;23490;53.656;10.076;2022-08-01T03:04:12;55943.78;;;-145.95;100.00
37648;BME280;23490;53.656;10.076;2022-08-01T03:06:38;55894.84;;;-145.95;100.00
37648;BME280;23490;53.656;10.076;2022-08-01T03:09:05;55882.63;;;-145.95;100.00
37648;BME280;23490;53.656;10.076;2022-08-01T03:11:33;55896.88;;;-145.95;100.00
37648;BME280;23490;53.656;10.076;2022-08-01T03:14:02;55888.72;;;-145.95;100.00
37648;BME280;23490;53.656;10.076;2022-08-01T03:16:30;55882.63;;;-145.95;100.00
37648;BME280;23490;53.656;10.076;2022-08-01T03:18:57;55894.84;;;-145.95;100.00
37648;BME280;23490;53.656;10.076;2022-08-01T03:21:24;55913.19;;;-145.95;100.00
37648;BME280;23490;53.656;10.076;2022-08-01T03:23:51;55907.09;;;-145.95;100.00
37648;BME280;23490;53.656;10.076;2022-08-01T03:26:24;55911.16;;;-145.95;100.00
37648;BME280;23490;53.656;10.076;2022-08-01T03:28:52;55888.72;;;-145.95;100.00
37648;BME280;23490;53.656;10.076;2022-08-01T03:31:21;55878.53;;;-145.95;100.00
37648;BME280;23490;53.656;10.076;2022-08-01T03:33:47;55903.00;;;-145.95;100.00
37648;BME280;23490;53.656;10.076;2022-08-01T03:36:13;55919.31;;;-145.95;100.00
37648;BME280;23490;53.656;10.076;2022-08-01T03:38:41;55919.31;;;-145.95;100.00
37648;BME280;23490;53.656;10.076;2022-08-01T03:41:19;55919.31;;;-145.95;100.00
37648;BME280;23490;53.656;10.076;2022-08-01T03:43:57;55900.97;;;-145.95;100.00
37648;BME280;23490;53.656;10.076;2022-08-01T03:46:43;55915.25;;;-145.95;100.00
37648;BME280;23490;53.656;10.076;2022-08-01T03:49:22;55890.78;;;-145.95;100.00
37648;BME280;23490;53.656;10.076;2022-08-01T03:51:49;55894.84;;;-145.95;100.00
37648;BME280;23490;53.656;10.076;2022-08-01T03:54:17;55894.84;;;-145.95;100.00
37648;BME280;23490;53.656;10.076;2022-08-01T03:56:46;55915.25;;;-145.95;100.00
37648;BME280;23490;53.656;10.076;2022-08-01T03:59:14;55894.84;;;-145.95;100.00
37648;BME280;23490;53.656;10.076;2022-08-01T04:01:40;55886.69;;;-145.95;100.00
37648;BME280;23490;53.656;10.076;2022-08-01T04:04:05;55890.78;;;-145.95;100.00
37648;BME280;23490;53.656;10.076;2022-08-01T04:06:31;55917.28;;;-145.95;100.00
37648;BME280;23490;53.656;10.076;2022-08-01T04:08:56;55874.47;;;-145.95;100.00
37648;BME280;23490;53.656;10.076;2022-08-01T04:11:26;55886.69;;;-145.95;100.00
37648;BME280;23490;53.656;10.076;2022-08-01T04:13:54;55898.94;;;-145.95;100.00
37648;BME280;23490;53.656;10.076;2022-08-01T04:16:20;55884.66;;;-145.95;100.00
37648;BME280;23490;53.656;10.076;2022-08-01T04:18:46;55956.03;;;-145.95;100.00
37648;BME280;23490;53.656;10.076;2022-08-01T04:21:12;55935.63;;;-145.95;100.00
37648;BME280;23490;53.656;10.076;2022-08-01T04:23:40;55888.72;;;-145.95;100.00
37648;BME280;23490;53.656;10.076;2022-08-01T04:26:07;55907.09;;;-145.95;100.00
37648;BME280;23490;53.656;10.076;2022-08-01T04:28:36;55915.25;;;-145.95;100.00
37648;BME280;23490;53.656;10.076;2022-08-01T04:31:05;55913.19;;;-145.95;100.00
37648;BME280;23490;53.656;10.076;2022-08-01T04:33:31;55894.84;;;-145.95;100.00
37648;BME280;23490;53.656;10.076;2022-08-01T04:36:03;55911.16;;;-145.95;100.00
37648;BME280;23490;53.656;10.076;2022-08-01T04:38:33;55894.84;;;-145.95;100.00
37648;BME280;23490;53.656;10.076;2022-08-01T04:41:02;55894.84;;;-145.95;100.00
37648;BME280;23490;53.656;10.076;2022-08-01T04:43:27;55866.31;;;-145.95;100.00
37648;BME280;23490;53.656;10.076;2022-08-01T04:45:54;55898.94;;;-145.95;100.00
37648;BME280;23490;53.656;10.076;2022-08-01T04:48:21;55894.84;;;-145.95;100.00
37648;BME280;23490;53.656;10.076;2022-08-01T04:50:49;55925.44;;;-145.95;100.00
37648;BME280;23490;53.656;10.076;2022-08-01T04:53:17;55903.00;;;-145.95;100.00
37648;BME280;23490;53.656;10.076;2022-08-01T04:55:43;55923.41;;;-145.95;100.00
37648;BME280;23490;53.656;10.076;2022-08-01T04:58:10;55907.09;;;-145.95;100.00
37648;BME280;23490;53.656;10.076;2022-08-01T05:00:35;55900.97;;;-145.95;100.00
37648;BME280;23490;53.656;10.076;2022-08-01T05:03:01;55915.25;;;-145.95;100.00
37648;BME280;23490;53.656;10.076;2022-08-01T05:05:26;55943.78;;;-145.95;100.00
37648;BME280;23490;53.656;10.076;2022-08-01T05:07:51;55890.78;;;-145.95;100.00
37648;BME280;23490;53.656;10.076;2022-08-01T05:10:17;55898.94;;;-145.95;100.00
37648;BME280;23490;53.656;10.076;2022-08-01T05:12:42;55890.78;;;-145.95;100.00
37648;BME280;23490;53.656;10.076;2022-08-01T05:15:08;55921.34;;;-145.95;100.00
37648;BME280;23490;53.656;10.076;2022-08-01T05:17:33;55911.16;;;-145.95;100.00
37648;BME280;23490;53.656;10.076;2022-08-01T05:19:59;55911.16;;;-145.95;100.00
37648;BME280;23490;53.656;10.076;2022-08-01T05:22:24;55925.44;;;-145.95;100.00
37648;BME280;23490;53.656;10.076;2022-08-01T05:24:50;55919.31;;;-145.95;100.00
37648;BME280;23490;53.656;10.076;2022-08-01T05:27:16;55898.94;;;-145.95;100.00
37648;BME280;23490;53.656;10.076;2022-08-01T05:29:42;55929.50;;;-145.95;100.00
37648;BME280;23490;53.656;10.076;2022-08-01T05:32:07;55890.78;;;-145.95;100.00
37648;BME280;23490;53.656;10.076;2022-08-01T05:34:33;55947.88;;;-145.95;100.00
37648;BME280;23490;53.656;10.076;2022-08-01T05:36:58;55909.13;;;-145.95;100.00
37648;BME280;23490;53.656;10.076;2022-08-01T05:39:23;55921.34;;;-145.95;100.00
37648;BME280;23490;53.656;10.076;2022-08-01T05:41:49;55925.44;;;-145.95;100.00
37648;BME280;23490;53.656;10.076;2022-08-01T05:44:14;55903.00;;;-145.95;100.00
37648;BME280;23490;53.656;10.076;2022-08-01T05:46:40;55915.25;;;-145.95;100.00
37648;BME280;23490;53.656;10.076;2022-08-01T05:49:05;55892.81;;;-145.95;100.00
37648;BME280;23490;53.656;10.076;2022-08-01T05:51:31;55905.03;;;-145.95;100.00
37648;BME280;23490;53.656;10.076;2022-08-01T05:53:57;55894.84;;;-145.95;100.00
37648;BME280;23490;53.656;10.076;2022-08-01T05:56:23;55951.94;;;-145.95;100.00
37648;BME280;23490;53.656;10.076;2022-08-01T05:58:49;55919.31;;;-145.95;100.00
37648;BME280;23490;53.656;10.076;2022-08-01T06:01:17;55931.56;;;-145.95;97.93
37648;BME280;23490;53.656;10.076;2022-08-01T06:03:42;55919.31;;;-145.95;99.01
37648;BME280;23490;53.656;10.076;2022-08-01T06:06:08;55919.31;;;-145.95;98.97
37648;BME280;23490;53.656;10.076;2022-08-01T06:08:33;55947.88;;;-145.95;98.50
37648;BME280;23490;53.656;10.076;2022-08-01T06:10:59;55911.16;;;-145.95;99.10
37648;BME280;23490;53.656;10.076;2022-08-01T06:13:24;55931.56;;;-145.95;98.27
37648;BME280;23490;53.656;10.076;2022-08-01T06:15:50;55927.47;;;-145.95;98.89
37648;BME280;23490;53.656;10.076;2022-08-01T06:18:15;55878.53;;;-145.95;97.40
37648;BME280;23490;53.656;10.076;2022-08-01T06:20:41;55927.47;;;-145.95;96.83
37648;BME280;23490;53.656;10.076;2022-08-01T06:23:07;55943.78;;;-145.95;97.34
37648;BME280;23490;53.656;10.076;2022-08-01T06:25:32;55925.44;;;-145.95;98.44
37648;BME280;23490;53.656;10.076;2022-08-01T06:27:59;55898.94;;;-145.95;97.61
37648;BME280;23490;53.656;10.076;2022-08-01T06:30:25;55931.56;;;-145.95;97.64
37648;BME280;23490;53.656;10.076;2022-08-01T06:32:50;55874.47;;;-145.95;97.95
37648;BME280;23490;53.656;10.076;2022-08-01T06:35:15;55927.47;;;-145.95;96.68
37648;BME280;23490;53.656;10.076;2022-08-01T06:37:41;55868.34;;;-145.95;97.24
37648;BME280;23490;53.656;10.076;2022-08-01T06:40:11;55927.47;;;-145.95;97.54
37648;BME280;23490;53.656;10.076;2022-08-01T06:42:36;55964.19;;;-145.95;97.09
37648;BME280;23490;53.656;10.076;2022-08-01T06:45:03;55951.94;;;-145.95;97.42
37648;BME280;23490;53.656;10.076;2022-08-01T06:47:29;55896.88;;;-145.95;97.50
37648;BME280;23490;53.656;10.076;2022-08-01T06:49:54;55951.94;;;-145.95;98.40
37648;BME280;23490;53.656;10.076;2022-08-01T06:52:19;55919.31;;;-145.95;97.70
37648;BME280;23490;53.656;10.076;2022-08-01T06:54:45;55888.72;;;-145.95;98.13
37648;BME280;23490;53.656;10.076;2022-08-01T06:57:10;55923.41;;;-145.95;98.15
37648;BME280;23490;53.656;10.076;2022-08-01T06:59:35;55919.31;;;-145.95;97.18
37648;BME280;23490;53.656;10.076;2022-08-01T07:02:01;55931.56;;;-145.95;95.68
37648;BME280;23490;53.656;10.076;2022-08-01T07:04:26;55935.63;;;-145.95;95.93
37648;BME280;23490;53.656;10.076;2022-08-01T07:06:52;55943.78;;;-145.95;96.56
37648;BME280;23490;53.656;10.076;2022-08-01T07:09:17;55923.41;;;-145.95;97.18
37648;BME280;23490;53.656;10.076;2022-08-01T07:11:42;55935.63;;;-145.95;95.67
37648;BME280;23490;53.656;10.076;2022-08-01T07:14:08;55888.72;;;-145.95;95.91
37648;BME280;23490;53.656;10.076;2022-08-01T07:16:33;55903.00;;;-145.95;94.49
37648;BME280;23490;53.656;10.076;2022-08-01T07:18:58;55907.09;;;-145.95;94.51
37648;BME280;23490;53.656;10.076;2022-08-01T07:21:24;55939.72;;;-145.95;94.96
37648;BME280;23490;53.656;10.076;2022-08-01T07:23:49;55892.81;;;-145.95;95.18
37648;BME280;23490;53.656;10.076;2022-08-01T07:26:14;55890.78;;;-145.95;95.24
37648;BME280;23490;53.656;10.076;2022-08-01T07:28:40;55947.88;;;-145.95;95.44
37648;BME280;23490;53.656;10.076;2022-08-01T07:31:05;55931.56;;;-145.95;95.21
37648;BME280;23490;53.656;10.076;2022-08-01T07:33:30;55886.69;;;-145.95;94.58
37648;BME280;23490;53.656;10.076;2022-08-01T07:35:56;55913.19;;;-145.95;95.21
37648;BME280;23490;53.656;10.076;2022-08-01T07:38:21;55925.44;;;-145.95;95.89
37648;BME280;23490;53.656;10.076;2022-08-01T07:40:46;55909.13;;;-145.95;95.71
37648;BME280;23490;53.656;10.076;2022-08-01T07:43:11;55935.63;;;-145.95;94.63
37648;BME280;23490;53.656;10.076;2022-08-01T07:45:37;55947.88;;;-145.95;93.83
37648;BME280;23490;53.656;10.076;2022-08-01T07:48:06;55927.47;;;-145.95;92.65
37648;BME280;23490;53.656;10.076;2022-08-01T07:50:32;55939.72;;;-145.95;93.08
37648;BME280;23490;53.656;10.076;2022-08-01T07:52:58;55913.19;;;-145.95;91.89
37648;BME280;23490;53.656;10.076;2022-08-01T07:55:23;55923.41;;;-145.95;93.21
37648;BME280;23490;53.656;10.076;2022-08-01T07:57:49;55953.97;;;-145.95;92.90
37648;BME280;23490;53.656;10.076;2022-08-01T08:00:15;55927.47;;;-145.95;92.52
37648;BME280;23490;53.656;10.076;2022-08-01T08:02:40;55925.44;;;-145.95;92.12
37648;BME280;23490;53.656;10.076;2022-08-01T08:05:06;55931.56;;;-145.95;93.01
37648;BME280;23490;53.656;10.076;2022-08-01T08:07:32;55915.25;;;-145.95;91.87
37648;BME280;23490;53.656;10.076;2022-08-01T08:09:58;55943.78;;;-145.95;92.40
37648;BME280;23490;53.656;10.076;2022-08-01T08:12:23;55913.19;;;-145.95;91.39
37648;BME280;23490;53.656;10.076;2022-08-01T08:14:48;55927.47;;;-145.95;90.25
37648;BME280;23490;53.656;10.076;2022-08-01T08:17:14;55886.69;;;-145.95;89.65
37648;BME280;23490;53.656;10.076;2022-08-01T08:19:40;55949.91;;;-145.95;89.24
37648;BME280;23490;53.656;10.076;2022-08-01T08:22:07;55935.63;;;-145.95;90.00
37648;BME280;23490;53.656;10.076;2022-08-01T08:24:33;55937.66;;;-145.95;90.80
37648;BME280;23490;53.656;10.076;2022-08-01T08:26:59;55927.47;;;-145.95;91.16
37648;BME280;23490;53.656;10.076;2022-08-01T08:29:26;55898.94;;;-145.95;89.60
37648;BME280;23490;53.656;10.076;2022-08-01T08:31:53;55915.25;;;-145.95;89.72
37648;BME280;23490;53.656;10.076;2022-08-01T08:34:19;55931.56;;;-145.95;89.81
37648;BME280;23490;53.656;10.076;2022-08-01T08:36:44;55917.28;;;-145.95;89.31
37648;BME280;23490;53.656;10.076;2022-08-01T08:39:09;55907.09;;;-145.95;90.34
37648;BME280;23490;53.656;10.076;2022-08-01T08:41:35;55949.91;;;-145.95;91.27
37648;BME280;23490;53.656;10.076;2022-08-01T08:44:02;55933.59;;;-145.95;90.77
37648;BME280;23490;53.656;10.076;2022-08-01T08:46:28;55921.34;;;-145.95;89.10
37648;BME280;23490;53.656;10.076;2022-08-01T08:48:57;55939.72;;;-145.95;88.61
37648;BME280;23490;53.656;10.076;2022-08-01T08:51:28;55919.31;;;-145.95;89.14
37648;BME280;23490;53.656;10.076;2022-08-01T08:53:56;55951.94;;;-145.95;84.06
37648;BME280;23490;53.656;10.076;2022-08-01T08:56:23;55927.47;;;-145.95;79.35
37648;BME280;23490;53.656;10.076;2022-08-01T08:58:50;55927.47;;;-145.95;73.03
37648;BME280;23490;53.656;10.076;2022-08-01T09:01:16;55935.63;;;-145.95;72.14
37648;BME280;23490;53.656;10.076;2022-08-01T09:03:42;55945.84;;;-145.95;69.59
37648;BME280;23490;53.656;10.076;2022-08-01T09:06:08;55960.09;;;-145.95;67.66
37648;BME280;23490;53.656;10.076;2022-08-01T09:08:33;55992.72;;;-145.95;67.15
37648;BME280;23490;53.656;10.076;2022-08-01T09:10:59;55964.19;;;-145.95;67.33
37648;BME280;23490;53.656;10.076;2022-08-01T09:13:24;55929.50;;;-145.95;64.06
37648;BME280;23490;53.656;10.076;2022-08-01T09:15:52;55951.94;;;-145.95;66.20
37648;BME280;23490;53.656;10.076;2022-08-01T09:18:40;55964.19;;;-145.95;63.46
37648;BME280;23490;53.656;10.076;2022-08-01T09:23:43;55953.97;;;-145.95;65.23
37648;BME280;23490;53.656;10.076;2022-08-01T09:26:10;55966.22;;;-145.95;67.55
37648;BME280;23490;53.656;10.076;2022-08-01T09:28:36;55935.63;;;-145.95;63.29
37648;BME280;23490;53.656;10.076;2022-08-01T09:31:12;55947.88;;;-145.95;63.89
37648;BME280;23490;53.656;10.076;2022-08-01T09:33:55;55929.50;;;-145.95;60.60
37648;BME280;23490;53.656;10.076;2022-08-01T09:36:23;55990.69;;;-145.95;59.62
37648;BME280;23490;53.656;10.076;2022-08-01T09:38:50;55992.72;;;-145.95;57.59
37648;BME280;23490;53.656;10.076;2022-08-01T09:41:16;55964.19;;;-145.95;54.94
37648;BME280;23490;53.656;10.076;2022-08-01T09:43:48;55996.81;;;-145.95;54.00
37648;BME280;23490;53.656;10.076;2022-08-01T09:46:14;55956.03;;;-145.95;53.71
37648;BME280;23490;53.656;10.076;2022-08-01T09:49:02;55990.69;;;-145.95;51.16
37648;BME280;23490;53.656;10.076;2022-08-01T09:51:35;55992.72;;;-145.95;52.04
37648;BME280;23490;53.656;10.076;2022-08-01T09:54:03;55976.41;;;-145.95;51.59
37648;BME280;23490;53.656;10.076;2022-08-01T09:56:42;56009.03;;;-145.95;49.41
37648;BME280;23490;53.656;10.076;2022-08-01T09:59:08;55953.97;;;-145.95;53.50
37648;BME280;23490;53.656;10.076;2022-08-01T10:01:49;56015.16;;;-145.95;49.96
37648;BME280;23490;53.656;10.076;2022-08-01T10:04:20;55982.53;;;-145.95;50.23
37648;BME280;23490;53.656;10.076;2022-08-01T10:06:47;56015.16;;;-145.95;49.31
37648;BME280;23490;53.656;10.076;2022-08-01T10:09:29;55988.66;;;-145.95;47.77
37648;BME280;23490;53.656;10.076;2022-08-01T10:11:55;56013.13;;;-145.95;49.17
37648;BME280;23490;53.656;10.076;2022-08-01T10:14:23;55984.56;;;-145.95;47.21
37648;BME280;23490;53.656;10.076;2022-08-01T10:16:51;55964.19;;;-145.95;45.20
37648;BME280;23490;53.656;10.076;2022-08-01T10:19:17;56013.13;;;-145.95;45.19
37648;BME280;23490;53.656;10.076;2022-08-01T10:21:43;55996.81;;;-145.95;45.05
37648;BME280;23490;53.656;10.076;2022-08-01T10:24:10;56009.03;;;-145.95;46.82
37648;BME280;23490;53.656;10.076;2022-08-01T10:26:36;55968.25;;;-145.95;45.76
37648;BME280;23490;53.656;10.076;2022-08-01T10:29:02;56045.75;;;-145.95;45.85
37648;BME280;23490;53.656;10.076;2022-08-01T10:31:28;56017.19;;;-145.95;46.37
37648;BME280;23490;53.656;10.076;2022-08-01T10:33:57;56000.88;;;-145.95;45.40
37648;BME280;23490;53.656;10.076;2022-08-01T10:36:23;55984.56;;;-145.95;44.18
37648;BME280;23490;53.656;10.076;2022-08-01T10:38:49;56000.88;;;-145.95;44.08
37648;BME280;23490;53.656;10.076;2022-08-01T10:41:15;56013.13;;;-145.95;42.11
37648;BME280;23490;53.656;10.076;2022-08-01T10:43:41;55992.72;;;-145.95;41.27
37648;BME280;23490;53.656;10.076;2022-08-01T10:46:07;56058.00;;;-145.95;41.04
37648;BME280;23490;53.656;10.076;2022-08-01T10:48:51;55968.25;;;-145.95;42.93
37648;BME280;23490;53.656;10.076;2022-08-01T10:51:18;55984.56;;;-145.95;41.49
37648;BME280;23490;53.656;10.076;2022-08-01T10:53:52;56004.97;;;-145.95;43.36
37648;BME280;23490;53.656;10.076;2022-08-01T10:56:18;56033.53;;;-145.95;44.02
37648;BME280;23490;53.656;10.076;2022-08-01T10:58:46;55988.66;;;-145.95;42.14
37648;BME280;23490;53.656;10.076;2022-08-01T11:01:30;55980.50;;;-145.95;43.13
37648;BME280;23490;53.656;10.076;2022-08-01T11:04:01;56021.28;;;-145.95;44.55
37648;BME280;23490;53.656;10.076;2022-08-01T11:09:23;55994.78;;;-145.95;42.02
37648;BME280;23490;53.656;10.076;2022-08-01T11:12:01;55964.19;;;-145.95;41.61
37648;BME280;23490;53.656;10.076;2022-08-01T11:14:28;56041.69;;;-145.95;41.49
37648;BME280;23490;53.656;10.076;2022-08-01T11:16:54;56004.97;;;-145.95;39.49
37648;BME280;23490;53.656;10.076;2022-08-01T11:19:20;55980.50;;;-145.95;39.19
37648;BME280;23490;53.656;10.076;2022-08-01T11:27:18;55964.19;;;-145.95;40.31
37648;BME280;23490;53.656;10.076;2022-08-01T11:32:49;55988.66;;;-145.95;40.39
37648;BME280;23490;53.656;10.076;2022-08-01T11:35:15;56031.47;;;-145.95;40.00
37648;BME280;23490;53.656;10.076;2022-08-01T11:37:41;55974.38;;;-145.95;40.12
37648;BME280;23490;53.656;10.076;2022-08-01T11:40:17;55996.81;;;-145.95;41.06
37648;BME280;23490;53.656;10.076;2022-08-01T11:42:43;56002.94;;;-145.95;39.92
37648;BME280;23490;53.656;10.076;2022-08-01T11:45:09;56013.13;;;-145.95;40.13
37648;BME280;23490;53.656;10.076;2022-08-01T11:47:46;56004.97;;;-145.95;38.71
37648;BME280;23490;53.656;10.076;2022-08-01T11:50:32;55982.53;;;-145.95;39.77
37648;BME280;23490;53.656;10.076;2022-08-01T11:53:03;56004.97;;;-145.95;38.76
37648;BME280;23490;53.656;10.076;2022-08-01T11:55:30;55996.81;;;-145.95;38.63
37648;BME280;23490;53.656;10.076;2022-08-01T11:58:00;56070.22;;;-145.95;39.85
37648;BME280;23490;53.656;10.076;2022-08-01T12:00:26;55976.41;;;-145.95;41.43
37648;BME280;23490;53.656;10.076;2022-08-01T12:03:02;55992.72;;;-145.95;42.58
37648;BME280;23490;53.656;10.076;2022-08-01T12:05:30;55968.25;;;-145.95;40.86
37648;BME280;23490;53.656;10.076;2022-08-01T12:07:57;56007.00;;;-145.95;40.71
37648;BME280;23490;53.656;10.076;2022-08-01T12:10:27;55980.50;;;-145.95;41.22
37648;BME280;23490;53.656;10.076;2022-08-01T12:13:00;56015.16;;;-145.95;40.57
37648;BME280;23490;53.656;10.076;2022-08-01T12:15:30;55996.81;;;-145.95;40.56
37648;BME280;23490;53.656;10.076;2022-08-01T12:17:58;56000.88;;;-145.95;40.74
37648;BME280;23490;53.656;10.076;2022-08-01T12:20:25;55998.84;;;-145.95;42.47
37648;BME280;23490;53.656;10.076;2022-08-01T12:22:54;56013.13;;;-145.95;40.27
37648;BME280;23490;53.656;10.076;2022-08-01T12:25:20;55992.72;;;-145.95;39.62
37648;BME280;23490;53.656;10.076;2022-08-01T12:27:47;55968.25;;;-145.95;38.71
37648;BME280;23490;53.656;10.076;2022-08-01T12:30:18;55986.63;;;-145.95;38.70
37648;BME280;23490;53.656;10.076;2022-08-01T12:32:46;56013.13;;;-145.95;38.81
37648;BME280;23490;53.656;10.076;2022-08-01T12:35:17;56002.94;;;-145.95;38.17
37648;BME280;23490;53.656;10.076;2022-08-01T12:37:48;55972.34;;;-145.95;37.47
37648;BME280;23490;53.656;10.076;2022-08-01T12:40:21;55996.81;;;-145.95;38.02
37648;BME280;23490;53.656;10.076;2022-08-01T12:42:58;55966.22;;;-145.95;38.06
37648;BME280;23490;53.656;10.076;2022-08-01T12:45:30;56009.03;;;-145.95;38.11
37648;BME280;23490;53.656;10.076;2022-08-01T12:47:57;55976.41;;;-145.95;37.37